createdAt,value
2022-10-17T00:01:21.730Z,97.48
2022-10-17T00:03:53.412Z,97.97
2022-10-17T00:06:25.132Z,97.98
2022-10-17T00:08:56.827Z,98.08
2022-10-17T00:11:28.679Z,98.17
2022-10-17T00:14:00.510Z,99.28
2022-10-17T00:16:36.846Z,100.00
2022-10-17T00:19:10.058Z,99.37
2022-10-17T00:21:42.264Z,99.25
2022-10-17T00:24:13.920Z,98.93
2022-10-17T00:26:45.947Z,98.44
2022-10-17T00:29:17.718Z,98.14
2022-10-17T00:31:55.057Z,98.11
2022-10-17T00:34:30.249Z,98.84
2022-10-17T00:37:02.099Z,99.87
2022-10-17T00:39:33.657Z,99.82
2022-10-17T00:42:05.502Z,99.51
2022-10-17T00:45:00.906Z,99.89
2022-10-17T00:47:34.471Z,99.96
2022-10-17T00:50:09.426Z,100.00
2022-10-17T00:52:42.459Z,99.75
2022-10-17T00:55:18.546Z,99.76
2022-10-17T00:57:50.760Z,100.00
2022-10-17T01:00:24.960Z,100.00
2022-10-17T01:02:55.104Z,100.00
2022-10-17T01:05:27.136Z,100.00
2022-10-17T01:08:00.646Z,100.00
2022-10-17T01:10:38.833Z,100.00
2022-10-17T01:13:16.224Z,100.00
2022-10-17T01:16:00.270Z,100.00
2022-10-17T01:18:46.385Z,100.00
2022-10-17T01:21:39.372Z,100.00
2022-10-17T01:24:30.056Z,100.00
2022-10-17T01:27:19.222Z,100.00
2022-10-17T01:30:05.694Z,100.00
2022-10-17T01:32:41.578Z,100.00
2022-10-17T01:35:21.526Z,100.00
2022-10-17T01:38:02.829Z,100.00
2022-10-17T01:40:40.576Z,100.00
2022-10-17T01:43:20.702Z,100.00
2022-10-17T01:46:02.626Z,100.00
2022-10-17T01:48:38.909Z,100.00
2022-10-17T01:51:17.290Z,100.00
2022-10-17T01:53:54.298Z,99.94
2022-10-17T01:56:29.383Z,99.98
2022-10-17T01:59:05.542Z,100.00
2022-10-17T02:01:39.162Z,100.00
2022-10-17T02:04:12.631Z,100.00
2022-10-17T02:06:44.220Z,100.00
2022-10-17T02:09:26.373Z,100.00
2022-10-17T02:12:21.765Z,100.00
2022-10-17T02:15:09.202Z,100.00
2022-10-17T02:17:54.061Z,100.00
2022-10-17T02:20:32.443Z,100.00
2022-10-17T02:23:13.414Z,100.00
2022-10-17T02:25:54.662Z,100.00
2022-10-17T02:28:35.802Z,100.00
2022-10-17T02:31:15.549Z,100.00
2022-10-17T02:33:56.517Z,100.00
2022-10-17T02:36:33.398Z,100.00
2022-10-17T02:39:07.654Z,100.00
2022-10-17T02:41:41.502Z,99.93
2022-10-17T02:44:13.579Z,99.45
2022-10-17T02:46:53.246Z,99.29
2022-10-17T02:49:28.718Z,99.90
2022-10-17T02:52:07.938Z,100.00
2022-10-17T02:54:44.398Z,100.00
2022-10-17T02:57:23.120Z,99.99
2022-10-17T02:59:56.005Z,99.93
2022-10-17T03:02:28.734Z,100.00
2022-10-17T03:05:01.298Z,100.00
2022-10-17T03:07:33.060Z,100.00
2022-10-17T03:10:07.224Z,100.00
2022-10-17T03:12:39.582Z,100.00
2022-10-17T03:15:15.003Z,100.00
2022-10-17T03:17:47.243Z,100.00
2022-10-17T03:20:19.970Z,100.00
2022-10-17T03:22:51.960Z,100.00
2022-10-17T03:25:24.128Z,100.00
2022-10-17T03:27:56.535Z,100.00
2022-10-17T03:30:29.328Z,100.00
2022-10-17T03:33:01.926Z,100.00
2022-10-17T03:35:33.734Z,100.00
2022-10-17T03:38:05.628Z,100.00
2022-10-17T03:40:37.417Z,100.00
2022-10-17T03:43:11.350Z,100.00
2022-10-17T03:45:44.468Z,100.00
2022-10-17T03:48:16.065Z,100.00
2022-10-17T03:50:47.708Z,100.00
2022-10-17T03:53:19.479Z,100.00
2022-10-17T03:55:52.005Z,100.00
2022-10-17T03:58:23.656Z,100.00
2022-10-17T04:00:56.191Z,100.00
2022-10-17T04:03:27.817Z,100.00
2022-10-17T04:06:02.861Z,100.00
2022-10-17T04:08:36.858Z,100.00
2022-10-17T04:11:18.655Z,100.00
2022-10-17T04:13:55.900Z,100.00
2022-10-17T04:16:28.112Z,100.00
2022-10-17T04:19:08.481Z,100.00
2022-10-17T04:21:44.070Z,100.00
2022-10-17T04:24:16.379Z,100.00
2022-10-17T04:27:23.338Z,100.00
2022-10-17T04:29:55.075Z,100.00
2022-10-17T04:32:29.274Z,100.00
2022-10-17T04:35:12.157Z,100.00
2022-10-17T04:37:46.139Z,100.00
2022-10-17T04:40:22.845Z,100.00
2022-10-17T04:42:56.051Z,100.00
2022-10-17T04:45:33.220Z,100.00
2022-10-17T04:48:07.422Z,100.00
2022-10-17T04:50:39.455Z,100.00
2022-10-17T04:53:32.191Z,100.00
2022-10-17T04:56:09.063Z,100.00
2022-10-17T04:58:41.812Z,100.00
2022-10-17T05:01:16.468Z,100.00
2022-10-17T05:03:49.827Z,100.00
2022-10-17T05:06:23.769Z,100.00
2022-10-17T05:09:21.622Z,100.00
2022-10-17T05:11:53.600Z,100.00
2022-10-17T05:14:25.302Z,100.00
2022-10-17T05:16:57.418Z,100.00
2022-10-17T05:19:29.268Z,100.00
2022-10-17T05:22:00.853Z,100.00
2022-10-17T05:24:32.088Z,100.00
2022-10-17T05:27:04.135Z,100.00
2022-10-17T05:29:36.810Z,100.00
2022-10-17T05:32:15.754Z,100.00
2022-10-17T05:34:48.072Z,100.00
2022-10-17T05:37:20.729Z,100.00
2022-10-17T05:39:55.258Z,100.00
2022-10-17T05:42:27.276Z,100.00
2022-10-17T05:44:59.493Z,100.00
2022-10-17T05:47:31.748Z,100.00
2022-10-17T05:50:03.665Z,100.00
2022-10-17T05:52:46.388Z,100.00
2022-10-17T05:55:20.545Z,100.00
2022-10-17T05:57:52.666Z,100.00
2022-10-17T06:00:25.060Z,100.00
2022-10-17T06:03:01.264Z,100.00
2022-10-17T06:05:33.104Z,100.00
2022-10-17T06:08:04.803Z,100.00
2022-10-17T06:10:39.605Z,100.00
2022-10-17T06:13:11.888Z,100.00
2022-10-17T06:15:43.756Z,100.00
2022-10-17T06:18:15.421Z,100.00
2022-10-17T06:20:47.339Z,100.00
2022-10-17T06:23:21.132Z,100.00
2022-10-17T06:26:13.528Z,100.00
2022-10-17T06:28:45.608Z,100.00
2022-10-17T06:31:18.659Z,100.00
2022-10-17T06:33:50.572Z,100.00
2022-10-17T06:36:22.870Z,100.00
2022-10-17T06:38:55.620Z,100.00
2022-10-17T06:41:37.369Z,100.00
2022-10-17T06:44:13.162Z,100.00
2022-10-17T06:47:01.569Z,100.00
2022-10-17T06:49:34.251Z,100.00
2022-10-17T06:52:23.279Z,100.00
2022-10-17T06:55:18.089Z,100.00
2022-10-17T06:58:10.042Z,100.00
2022-10-17T07:01:13.751Z,100.00
2022-10-17T07:03:48.713Z,100.00
2022-10-17T07:06:24.766Z,100.00
2022-10-17T07:08:57.071Z,100.00
2022-10-17T07:11:29.182Z,100.00
2022-10-17T07:14:00.872Z,100.00
2022-10-17T07:16:33.161Z,100.00
2022-10-17T07:19:11.334Z,100.00
2022-10-17T07:21:44.298Z,100.00
2022-10-17T07:24:15.770Z,100.00
2022-10-17T07:26:52.043Z,100.00
2022-10-17T07:29:24.433Z,100.00
2022-10-17T07:32:25.525Z,100.00
2022-10-17T07:34:57.718Z,100.00
2022-10-17T07:37:30.393Z,99.58
2022-10-17T07:40:04.245Z,99.38
2022-10-17T07:42:40.655Z,99.58
2022-10-17T07:45:13.180Z,99.40
2022-10-17T07:47:43.757Z,99.16
2022-10-17T07:50:18.523Z,98.58
2022-10-17T07:52:50.775Z,98.28
2022-10-17T07:55:22.759Z,97.90
2022-10-17T07:57:54.413Z,97.48
2022-10-17T08:00:26.345Z,96.88
2022-10-17T08:02:58.234Z,96.81
2022-10-17T08:05:30.286Z,96.48
2022-10-17T08:08:02.276Z,96.16
2022-10-17T08:10:34.277Z,96.01
2022-10-17T08:13:06.387Z,95.61
2022-10-17T08:15:40.205Z,95.14
2022-10-17T08:18:13.821Z,94.90
2022-10-17T08:20:45.911Z,94.81
2022-10-17T08:23:17.990Z,95.00
2022-10-17T08:25:50.015Z,94.89
2022-10-17T08:28:22.188Z,94.76
2022-10-17T08:30:54.434Z,94.42
2022-10-17T08:33:26.446Z,93.77
2022-10-17T08:35:59.185Z,93.42
2022-10-17T08:38:35.385Z,92.85
2022-10-17T08:41:14.619Z,92.57
2022-10-17T08:43:59.938Z,92.21
2022-10-17T08:46:36.696Z,91.55
2022-10-17T08:49:17.638Z,91.29
2022-10-17T08:51:54.112Z,91.17
2022-10-17T08:54:33.133Z,90.66
2022-10-17T08:57:05.211Z,89.73
2022-10-17T08:59:37.598Z,89.37
2022-10-17T09:02:34.378Z,89.62
2022-10-17T09:05:32.691Z,88.96
2022-10-17T09:08:13.939Z,88.67
2022-10-17T09:10:57.161Z,88.85
2022-10-17T09:13:41.913Z,88.26
2022-10-17T09:16:45.571Z,87.81
2022-10-17T09:19:22.523Z,87.57
2022-10-17T09:21:58.630Z,87.23
2022-10-17T09:24:40.141Z,87.31
2022-10-17T09:27:24.329Z,86.01
2022-10-17T09:30:04.683Z,85.15
2022-10-17T09:32:41.046Z,83.99
2022-10-17T09:35:16.541Z,82.95
2022-10-17T09:37:49.533Z,81.58
2022-10-17T09:40:26.293Z,80.58
2022-10-17T09:42:58.605Z,79.66
2022-10-17T09:45:37.603Z,78.89
2022-10-17T09:48:20.266Z,77.66
2022-10-17T09:51:02.624Z,77.15
2022-10-17T09:53:50.557Z,76.40
2022-10-17T09:56:22.662Z,75.55
2022-10-17T09:58:58.116Z,75.04
2022-10-17T10:01:32.149Z,75.24
2022-10-17T10:04:15.162Z,74.08
2022-10-17T10:07:04.412Z,73.27
2022-10-17T10:09:39.646Z,73.01
2022-10-17T10:12:21.221Z,73.03
2022-10-17T10:14:54.782Z,72.21
2022-10-17T10:17:41.756Z,71.95
2022-10-17T10:20:33.501Z,71.13
2022-10-17T10:23:13.784Z,70.20
2022-10-17T10:26:00.544Z,69.20
2022-10-17T10:28:35.385Z,68.72
2022-10-17T10:31:09.754Z,68.22
2022-10-17T10:33:49.471Z,67.81
2022-10-17T10:36:23.156Z,67.27
2022-10-17T10:38:56.220Z,67.04
2022-10-17T10:41:28.570Z,66.45
2022-10-17T10:44:00.380Z,65.91
2022-10-17T10:46:32.137Z,65.07
2022-10-17T10:49:04.581Z,64.53
2022-10-17T10:51:36.431Z,64.36
2022-10-17T10:54:17.466Z,64.08
2022-10-17T10:56:53.515Z,63.57
2022-10-17T10:59:31.634Z,63.28
2022-10-17T11:02:13.733Z,62.64
2022-10-17T11:04:51.222Z,62.25
2022-10-17T11:07:29.469Z,61.90
2022-10-17T11:10:12.163Z,61.62
2022-10-17T11:12:47.569Z,61.36
2022-10-17T11:15:26.411Z,61.20
2022-10-17T11:18:03.293Z,60.95
2022-10-17T11:20:42.910Z,60.69
2022-10-17T11:23:21.744Z,60.52
2022-10-17T11:25:55.644Z,60.05
2022-10-17T11:28:27.657Z,59.98
2022-10-17T11:31:07.239Z,59.98
2022-10-17T11:33:46.683Z,59.67
2022-10-17T11:36:23.149Z,59.14
2022-10-17T11:38:58.001Z,58.81
2022-10-17T11:41:36.251Z,58.19
2022-10-17T11:44:16.685Z,57.98
2022-10-17T11:46:53.545Z,57.70
2022-10-17T11:49:29.713Z,57.11
2022-10-17T11:52:37.434Z,57.10
2022-10-17T11:55:18.391Z,56.82
2022-10-17T11:58:08.753Z,56.86
2022-10-17T12:00:51.223Z,56.27
2022-10-17T12:03:46.782Z,55.68
2022-10-17T12:06:29.677Z,55.34
2022-10-17T12:09:08.645Z,55.45
2022-10-17T12:11:53.917Z,55.43
2022-10-17T12:14:41.320Z,55.25
2022-10-17T12:17:39.293Z,54.92
2022-10-17T12:20:39.854Z,54.76
2022-10-17T12:23:30.816Z,54.52
2022-10-17T12:26:05.681Z,54.27
2022-10-17T12:28:44.752Z,54.31
2022-10-17T12:31:33.432Z,54.13
2022-10-17T12:34:06.722Z,54.46
2022-10-17T12:36:40.340Z,54.79
2022-10-17T12:39:49.366Z,54.92
2022-10-17T12:42:46.634Z,54.75
2022-10-17T12:45:49.685Z,54.29
2022-10-17T12:48:37.176Z,53.81
2022-10-17T12:54:10.070Z,53.32
2022-10-17T12:56:44.386Z,53.09
2022-10-17T12:59:21.684Z,53.17
2022-10-17T13:01:57.362Z,53.00
2022-10-17T13:04:30.752Z,52.56
2022-10-17T13:07:02.688Z,53.01
2022-10-17T13:09:37.808Z,53.43
2022-10-17T13:12:15.599Z,53.97
2022-10-17T13:14:51.533Z,53.93
2022-10-17T13:17:29.681Z,54.11
2022-10-17T13:20:02.070Z,54.54
2022-10-17T13:22:33.597Z,54.85
2022-10-17T13:25:17.932Z,55.42
2022-10-17T13:27:50.646Z,55.27
2022-10-17T13:30:32.110Z,54.98
2022-10-17T13:33:17.196Z,54.55
2022-10-17T13:36:05.916Z,54.33
2022-10-17T13:38:41.713Z,54.27
2022-10-17T13:41:38.214Z,54.32
2022-10-17T13:44:16.896Z,54.38
2022-10-17T13:46:49.253Z,54.56
2022-10-17T13:49:26.085Z,54.48
2022-10-17T13:52:02.437Z,54.41
2022-10-17T13:54:41.359Z,54.71
2022-10-17T13:57:24.832Z,54.96
2022-10-17T13:59:59.436Z,55.21
2022-10-17T14:02:33.860Z,55.75
2022-10-17T14:05:17.112Z,56.23
2022-10-17T14:08:13.056Z,56.23
2022-10-17T14:10:47.170Z,56.42
2022-10-17T14:13:23.877Z,56.13
2022-10-17T14:15:59.029Z,55.95
2022-10-17T14:18:36.581Z,55.84
2022-10-17T14:24:28.340Z,56.21
2022-10-17T14:27:01.431Z,56.84
2022-10-17T14:29:51.954Z,57.19
2022-10-17T14:32:25.073Z,57.70
2022-10-17T14:35:17.883Z,58.34
2022-10-17T14:37:52.969Z,58.95
2022-10-17T14:40:27.407Z,59.60
2022-10-17T14:43:02.100Z,59.92
2022-10-17T14:45:36.176Z,60.11
2022-10-17T14:48:15.524Z,60.34
2022-10-17T14:51:11.854Z,60.76
2022-10-17T14:53:45.153Z,61.05
2022-10-17T14:56:26.688Z,61.45
2022-10-17T14:58:59.012Z,61.71
2022-10-17T15:01:31.269Z,61.55
2022-10-17T15:04:02.893Z,61.40
2022-10-17T15:06:35.935Z,61.36
2022-10-17T15:09:08.436Z,61.44
2022-10-17T15:11:39.149Z,61.40
2022-10-17T15:14:10.849Z,61.60
2022-10-17T15:16:42.625Z,61.67
2022-10-17T15:19:15.012Z,61.82
2022-10-17T15:21:47.441Z,62.01
2022-10-17T15:24:19.422Z,62.20
2022-10-17T15:26:51.420Z,62.27
2022-10-17T15:29:23.578Z,62.42
2022-10-17T15:31:55.220Z,62.46
2022-10-17T15:34:26.959Z,62.67
2022-10-17T15:36:58.791Z,62.77
2022-10-17T15:39:30.354Z,63.06
2022-10-17T15:42:01.938Z,63.19
2022-10-17T15:44:33.662Z,63.40
2022-10-17T15:47:05.590Z,63.83
2022-10-17T15:49:36.367Z,64.04
2022-10-17T15:52:09.701Z,64.31
2022-10-17T15:54:41.448Z,64.60
2022-10-17T15:57:17.348Z,64.62
2022-10-17T15:59:50.400Z,65.22
2022-10-17T16:02:24.244Z,65.64
2022-10-17T16:04:56.130Z,65.69
2022-10-17T16:07:28.208Z,66.03
2022-10-17T16:10:00.159Z,66.47
2022-10-17T16:12:36.959Z,66.62
2022-10-17T16:15:14.070Z,66.94
2022-10-17T16:17:45.854Z,67.00
2022-10-17T16:20:17.580Z,67.35
2022-10-17T16:22:50.469Z,67.63
2022-10-17T16:25:24.186Z,67.68
2022-10-17T16:27:57.584Z,68.07
2022-10-17T16:30:31.705Z,68.12
2022-10-17T16:33:03.616Z,68.43
2022-10-17T16:35:37.918Z,68.76
2022-10-17T16:38:10.248Z,68.90
2022-10-17T16:40:42.188Z,69.18
2022-10-17T16:43:15.084Z,69.11
2022-10-17T16:45:46.705Z,69.40
2022-10-17T16:48:18.359Z,69.62
2022-10-17T16:50:49.991Z,69.56
2022-10-17T16:53:21.630Z,69.73
2022-10-17T16:56:03.211Z,70.08
2022-10-17T16:58:34.981Z,70.02
2022-10-17T17:01:09.601Z,70.03
2022-10-17T17:03:42.918Z,70.24
2022-10-17T17:06:18.993Z,70.70
2022-10-17T17:08:51.569Z,70.89
2022-10-17T17:11:25.090Z,70.97
2022-10-17T17:14:01.715Z,71.43
2022-10-17T17:16:35.843Z,71.67
2022-10-17T17:19:11.148Z,71.96
2022-10-17T17:21:47.717Z,72.20
2022-10-17T17:24:21.859Z,72.51
2022-10-17T17:26:56.173Z,72.51
2022-10-17T17:29:28.014Z,72.29
2022-10-17T17:31:59.730Z,73.01
2022-10-17T17:34:32.344Z,73.39
2022-10-17T17:37:02.583Z,73.54
2022-10-17T17:39:34.521Z,73.64
2022-10-17T17:42:06.284Z,73.67
2022-10-17T17:44:38.100Z,73.71
2022-10-17T17:47:09.981Z,73.56
2022-10-17T17:49:41.839Z,73.75
2022-10-17T17:52:13.871Z,73.60
2022-10-17T17:54:46.921Z,73.45
2022-10-17T17:57:19.017Z,73.73
2022-10-17T17:59:52.327Z,73.47
2022-10-17T18:02:24.379Z,73.74
2022-10-17T18:04:57.248Z,73.44
2022-10-17T18:07:30.645Z,73.86
2022-10-17T18:10:06.507Z,74.08
2022-10-17T18:12:39.743Z,73.76
2022-10-17T18:15:12.548Z,73.84
2022-10-17T18:17:42.782Z,74.05
2022-10-17T18:20:15.003Z,74.46
2022-10-17T18:22:46.812Z,74.36
2022-10-17T18:25:19.012Z,74.62
2022-10-17T18:27:52.366Z,74.61
2022-10-17T18:30:27.209Z,74.77
2022-10-17T18:33:01.005Z,74.86
2022-10-17T18:35:35.378Z,74.92
2022-10-17T18:38:09.453Z,75.16
2022-10-17T18:40:41.159Z,75.34
2022-10-17T18:43:12.849Z,75.34
2022-10-17T18:45:44.573Z,75.78
2022-10-17T18:48:16.212Z,75.56
2022-10-17T18:50:47.932Z,75.53
2022-10-17T18:53:19.719Z,75.84
2022-10-17T18:55:53.539Z,76.00
2022-10-17T18:58:25.711Z,76.08
2022-10-17T19:01:02.248Z,75.98
2022-10-17T19:03:34.595Z,76.28
2022-10-17T19:06:08.637Z,76.26
2022-10-17T19:08:41.919Z,76.28
2022-10-17T19:11:16.190Z,75.94
2022-10-17T19:13:48.542Z,75.87
2022-10-17T19:16:23.686Z,75.81
2022-10-17T19:18:58.493Z,75.79
2022-10-17T19:21:30.652Z,75.68
2022-10-17T19:24:05.136Z,75.79
2022-10-17T19:26:39.879Z,75.54
2022-10-17T19:29:13.517Z,75.46
2022-10-17T19:31:45.830Z,75.44
2022-10-17T19:34:18.638Z,75.40
2022-10-17T19:36:51.362Z,75.55
2022-10-17T19:39:25.137Z,75.57
2022-10-17T19:41:57.132Z,75.36
2022-10-17T19:44:29.175Z,75.12
2022-10-17T19:47:01.064Z,75.29
2022-10-17T19:49:33.374Z,75.76
2022-10-17T19:52:05.998Z,75.21
2022-10-17T19:54:38.967Z,75.27
2022-10-17T19:57:12.324Z,75.33
2022-10-17T19:59:48.557Z,75.04
2022-10-17T20:02:23.381Z,74.76
2022-10-17T20:05:13.818Z,75.16
2022-10-17T20:07:48.843Z,74.98
2022-10-17T20:10:20.931Z,74.61
2022-10-17T20:12:53.131Z,74.94
2022-10-17T20:15:25.501Z,74.84
2022-10-17T20:17:58.097Z,74.56
2022-10-17T20:20:32.676Z,74.88
2022-10-17T20:23:05.234Z,74.81
2022-10-17T20:25:38.909Z,75.20
2022-10-17T20:28:11.832Z,75.04
2022-10-17T20:30:48.097Z,75.01
2022-10-17T20:33:20.830Z,74.84
2022-10-17T20:35:52.876Z,74.91
2022-10-17T20:38:25.250Z,75.21
2022-10-17T20:41:00.703Z,75.28
2022-10-17T20:43:32.933Z,75.40
2022-10-17T20:46:22.758Z,75.24
2022-10-17T20:48:58.438Z,75.41
2022-10-17T20:51:31.204Z,75.14
2022-10-17T20:54:04.169Z,75.32
2022-10-17T20:56:37.218Z,75.13
2022-10-17T20:59:12.299Z,75.26
2022-10-17T21:01:45.058Z,75.41
2022-10-17T21:07:09.875Z,76.03
2022-10-17T21:09:42.478Z,76.19
2022-10-17T21:12:21.624Z,76.62
2022-10-17T21:15:03.671Z,76.67
2022-10-17T21:17:35.280Z,76.72
2022-10-17T21:20:08.628Z,77.10
2022-10-17T21:22:40.360Z,76.72
2022-10-17T21:25:12.659Z,76.75
2022-10-17T21:27:44.290Z,77.17
2022-10-17T21:30:15.894Z,77.60
2022-10-17T21:32:51.477Z,77.80
2022-10-17T21:35:23.650Z,77.79
2022-10-17T21:37:55.443Z,77.45
2022-10-17T21:40:27.133Z,77.35
2022-10-17T21:42:58.814Z,77.56
2022-10-17T21:45:30.642Z,78.03
2022-10-17T21:48:12.694Z,77.96
2022-10-17T21:50:44.903Z,77.73
2022-10-17T21:53:16.582Z,77.74
2022-10-17T21:55:48.207Z,78.16
2022-10-17T21:58:20.350Z,78.01
2022-10-17T22:00:51.921Z,78.25
2022-10-17T22:03:23.626Z,77.96
2022-10-17T22:06:11.759Z,78.29
2022-10-17T22:08:48.525Z,78.42
2022-10-17T22:11:23.094Z,78.11
2022-10-17T22:13:58.498Z,77.99
2022-10-17T22:16:30.570Z,77.92
2022-10-17T22:19:06.261Z,77.93
2022-10-17T22:21:39.364Z,78.08
2022-10-17T22:24:14.225Z,78.10
2022-10-17T22:26:47.659Z,78.38
2022-10-17T22:29:19.563Z,78.37
2022-10-17T22:31:51.281Z,78.56
2022-10-17T22:34:22.956Z,78.70
2022-10-17T22:36:54.872Z,78.50
2022-10-17T22:39:27.088Z,78.39
2022-10-17T22:41:58.820Z,78.40
2022-10-17T22:44:30.666Z,78.34
2022-10-17T22:47:02.346Z,78.61
2022-10-17T22:49:34.781Z,78.63
2022-10-17T22:52:06.675Z,78.59
2022-10-17T22:54:38.270Z,78.56
2022-10-17T22:57:09.946Z,78.90
2022-10-17T22:59:41.641Z,78.93
2022-10-17T23:02:13.263Z,79.04
2022-10-17T23:04:44.886Z,79.27
2022-10-17T23:07:16.981Z,79.39
2022-10-17T23:09:48.630Z,79.70
2022-10-17T23:12:20.673Z,79.62
2022-10-17T23:14:53.855Z,79.49
2022-10-17T23:17:25.663Z,79.49
2022-10-17T23:19:57.791Z,79.89
2022-10-17T23:22:29.974Z,79.92
2022-10-17T23:25:05.205Z,80.01
2022-10-17T23:27:37.809Z,80.60
2022-10-17T23:30:09.155Z,80.52
2022-10-17T23:32:41.292Z,80.53
2022-10-17T23:35:12.992Z,80.42
2022-10-17T23:37:44.590Z,80.36
2022-10-17T23:40:16.547Z,80.55
2022-10-17T23:42:48.263Z,80.69
2022-10-17T23:45:20.825Z,80.66
2022-10-17T23:47:52.515Z,80.49
2022-10-17T23:50:24.406Z,80.77
2022-10-17T23:52:55.949Z,81.37
2022-10-17T23:55:27.550Z,81.31
2022-10-17T23:57:59.273Z,82.00
